createdAt,value
2022-09-15T18:01:25.616Z,97.83
2022-09-15T18:02:26.556Z,97.88
2022-09-15T18:03:26.535Z,97.78
2022-09-15T18:04:26.487Z,98.39
2022-09-15T18:05:26.475Z,98.39
2022-09-15T18:06:26.451Z,98.90
2022-09-15T18:07:26.474Z,98.28
2022-09-15T18:08:26.460Z,98.18
2022-09-15T18:09:26.423Z,98.49
2022-09-15T18:10:26.418Z,98.59
2022-09-15T18:11:26.401Z,98.03
2022-09-15T18:12:26.386Z,97.63
2022-09-15T18:13:26.416Z,98.14
2022-09-15T18:14:26.394Z,98.14
2022-09-15T18:15:26.364Z,98.34
2022-09-15T18:16:26.367Z,98.14
2022-09-15T18:17:26.350Z,98.03
2022-09-15T18:18:26.361Z,98.65
2022-09-15T18:19:26.318Z,98.14
2022-09-15T18:20:26.314Z,98.54
2022-09-15T18:21:26.318Z,98.03
2022-09-15T18:22:26.296Z,97.94
2022-09-15T18:23:26.296Z,97.83
2022-09-15T18:24:26.278Z,97.83
2022-09-15T18:25:26.264Z,98.14
2022-09-15T18:26:26.952Z,97.83
2022-09-15T18:27:26.239Z,97.94
2022-09-15T18:28:26.247Z,97.73
2022-09-15T18:29:26.216Z,97.73
2022-09-15T18:30:26.199Z,97.73
2022-09-15T18:31:26.257Z,98.18
2022-09-15T18:32:26.178Z,98.08
2022-09-15T18:33:26.192Z,97.58
2022-09-15T18:34:26.156Z,97.78
2022-09-15T18:35:26.152Z,98.18
2022-09-15T18:36:26.161Z,98.28
2022-09-15T18:37:26.135Z,97.98
2022-09-15T18:38:26.136Z,98.08
2022-09-15T18:39:26.113Z,98.28
2022-09-15T18:40:26.150Z,98.39
2022-09-15T18:41:26.427Z,98.08
2022-09-15T18:42:29.741Z,98.28
2022-09-15T18:43:26.100Z,98.69
2022-09-15T18:44:26.055Z,98.49
2022-09-15T18:45:26.081Z,98.79
2022-09-15T18:46:26.215Z,98.79
2022-09-15T18:47:26.031Z,98.90
2022-09-15T18:48:26.051Z,98.99
2022-09-15T18:49:26.030Z,99.19
2022-09-15T18:50:26.003Z,99.19
2022-09-15T18:51:34.966Z,99.19
2022-09-15T18:52:25.980Z,98.99
2022-09-15T18:53:26.004Z,98.79
2022-09-15T18:54:26.753Z,98.99
2022-09-15T18:55:25.945Z,98.99
2022-09-15T18:56:26.823Z,98.39
2022-09-15T18:57:25.936Z,98.79
2022-09-15T18:58:25.928Z,98.90
2022-09-15T18:59:25.913Z,98.99
2022-09-15T19:00:25.977Z,99.19
2022-09-15T19:01:26.065Z,99.10
2022-09-15T19:02:25.946Z,98.49
2022-09-15T19:03:26.109Z,98.79
2022-09-15T19:04:31.639Z,98.59
2022-09-15T19:05:25.846Z,98.59
2022-09-15T19:06:25.843Z,98.90
2022-09-15T19:07:28.402Z,98.59
2022-09-15T19:08:25.840Z,98.99
2022-09-15T19:09:25.816Z,99.30
2022-09-15T19:10:25.847Z,98.90
2022-09-15T19:11:25.778Z,98.69
2022-09-15T19:12:25.764Z,99.10
2022-09-15T19:13:25.794Z,99.10
2022-09-15T19:14:25.741Z,99.19
2022-09-15T19:15:25.750Z,98.69
2022-09-15T19:16:34.670Z,98.99
2022-09-15T19:17:25.780Z,99.19
2022-09-15T19:18:25.723Z,99.19
2022-09-15T19:19:25.705Z,98.90
2022-09-15T19:20:26.249Z,99.10
2022-09-15T19:21:27.506Z,99.50
2022-09-15T19:22:25.658Z,99.40
2022-09-15T19:23:25.698Z,99.50
2022-09-15T19:24:25.652Z,99.50
2022-09-15T19:25:25.636Z,99.80
2022-09-15T19:26:25.618Z,99.60
2022-09-15T19:27:25.624Z,99.50
2022-09-15T19:28:25.644Z,99.19
2022-09-15T19:29:25.598Z,99.60
2022-09-15T19:30:25.606Z,99.70
2022-09-15T19:31:25.611Z,99.65
2022-09-15T19:32:25.549Z,99.55
2022-09-15T19:33:25.567Z,99.65
2022-09-15T19:34:25.551Z,99.44
2022-09-15T19:35:25.527Z,99.55
2022-09-15T19:36:29.341Z,99.65
2022-09-15T19:37:25.508Z,99.75
2022-09-15T19:38:25.512Z,99.95
2022-09-15T19:39:25.485Z,99.95
2022-09-15T19:40:25.503Z,99.75
2022-09-15T19:41:25.479Z,99.55
2022-09-15T19:42:25.453Z,99.75
2022-09-15T19:43:25.479Z,99.65
2022-09-15T19:44:25.444Z,99.55
2022-09-15T19:45:26.321Z,99.35
2022-09-15T19:46:25.464Z,99.35
2022-09-15T19:47:25.447Z,99.55
2022-09-15T19:48:25.412Z,99.65
2022-09-15T19:49:25.395Z,99.75
2022-09-15T19:50:26.320Z,99.35
2022-09-15T19:51:25.375Z,99.35
2022-09-15T19:52:25.344Z,99.35
2022-09-15T19:53:25.361Z,99.44
2022-09-15T19:54:25.349Z,99.75
2022-09-15T19:55:25.327Z,99.95
2022-09-15T19:56:25.311Z,99.85
2022-09-15T19:57:25.311Z,99.65
2022-09-15T19:58:25.305Z,99.65
2022-09-15T19:59:30.174Z,99.65
2022-09-15T20:00:25.278Z,99.85
2022-09-15T20:01:25.331Z,99.75
2022-09-15T20:02:25.336Z,99.85
2022-09-15T20:03:25.253Z,99.60
2022-09-15T20:04:25.220Z,99.29
2022-09-15T20:05:25.232Z,99.39
2022-09-15T20:06:28.901Z,99.80
2022-09-15T20:07:25.209Z,99.80
2022-09-15T20:08:25.200Z,99.99
2022-09-15T20:09:25.192Z,99.49
2022-09-15T20:10:25.180Z,99.60
2022-09-15T20:11:25.175Z,99.99
2022-09-15T20:12:25.159Z,99.99
2022-09-15T20:13:25.149Z,99.90
2022-09-15T20:14:25.152Z,99.90
2022-09-15T20:15:25.123Z,99.99
2022-09-15T20:16:25.118Z,99.90
2022-09-15T20:17:25.145Z,99.99
2022-09-15T20:18:25.095Z,99.99
2022-09-15T20:19:25.070Z,99.80
2022-09-15T20:20:25.055Z,99.80
2022-09-15T20:21:45.764Z,99.99
2022-09-15T20:22:25.055Z,99.99
2022-09-15T20:23:25.041Z,99.99
2022-09-15T20:24:25.013Z,99.99
2022-09-15T20:25:24.998Z,99.99
2022-09-15T20:26:25.014Z,99.99
2022-09-15T20:27:24.979Z,99.99
2022-09-15T20:28:25.004Z,99.99
2022-09-15T20:29:24.985Z,99.99
2022-09-15T20:30:25.020Z,99.99
2022-09-15T20:31:24.938Z,99.99
2022-09-15T20:32:28.272Z,99.99
2022-09-15T20:33:25.757Z,99.99
2022-09-15T20:34:24.915Z,99.99
2022-09-15T20:35:24.915Z,99.99
2022-09-15T20:36:24.907Z,99.99
2022-09-15T20:37:24.883Z,99.99
2022-09-15T20:38:24.898Z,99.99
2022-09-15T20:39:24.876Z,99.99
2022-09-15T20:40:24.943Z,99.99
2022-09-15T20:41:24.839Z,99.99
2022-09-15T20:42:24.846Z,99.99
2022-09-15T20:43:24.844Z,99.99
2022-09-15T20:44:24.826Z,99.99
2022-09-15T20:45:24.792Z,99.99
2022-09-15T20:46:24.812Z,99.99
2022-09-15T20:47:24.795Z,99.99
2022-09-15T20:48:24.899Z,99.99
2022-09-15T20:49:24.752Z,99.99
2022-09-15T20:50:25.004Z,99.99
2022-09-15T20:51:24.757Z,99.99
2022-09-15T20:52:29.420Z,99.99
2022-09-15T20:53:24.810Z,99.99
2022-09-15T20:54:25.418Z,99.99
2022-09-15T20:55:24.755Z,99.99
2022-09-15T20:56:24.688Z,99.99
2022-09-15T20:57:25.024Z,99.99
2022-09-15T20:58:24.869Z,99.99
2022-09-15T20:59:24.650Z,99.99
2022-09-15T21:00:24.643Z,99.99
2022-09-15T21:01:24.689Z,99.99
2022-09-15T21:02:24.679Z,99.99
2022-09-15T21:03:24.625Z,99.99
2022-09-15T21:04:24.622Z,99.99
2022-09-15T21:05:24.583Z,99.99
2022-09-15T21:06:24.676Z,99.99
2022-09-15T21:07:24.573Z,99.99
2022-09-15T21:08:24.573Z,99.99
2022-09-15T21:09:24.565Z,99.99
2022-09-15T21:10:24.554Z,99.99
2022-09-15T21:11:24.544Z,99.99
2022-09-15T21:12:24.539Z,99.99
2022-09-15T21:13:24.522Z,99.99
2022-09-15T21:14:24.497Z,99.99
2022-09-15T21:15:24.481Z,99.99
2022-09-15T21:16:24.556Z,99.99
2022-09-15T21:17:24.482Z,99.99
2022-09-15T21:18:24.483Z,99.99
2022-09-15T21:19:24.689Z,99.99
2022-09-15T21:20:24.476Z,99.99
2022-09-15T21:21:24.426Z,99.99
2022-09-15T21:22:24.431Z,99.99
2022-09-15T21:23:24.420Z,99.99
2022-09-15T21:24:24.413Z,99.99
2022-09-15T21:25:24.372Z,99.99
2022-09-15T21:26:24.377Z,99.99
2022-09-15T21:27:24.363Z,99.99
2022-09-15T21:28:24.365Z,99.99
2022-09-15T21:29:24.333Z,99.99
2022-09-15T21:30:24.349Z,99.99
2022-09-15T21:31:24.367Z,99.99
2022-09-15T21:32:24.325Z,99.99
2022-09-15T21:33:24.331Z,99.99
2022-09-15T21:34:24.285Z,99.99
2022-09-15T21:35:24.288Z,99.99
2022-09-15T21:36:24.276Z,99.99
2022-09-15T21:37:24.252Z,99.99
2022-09-15T21:38:24.277Z,99.99
2022-09-15T21:39:24.230Z,99.99
2022-09-15T21:40:24.321Z,99.99
2022-09-15T21:41:24.227Z,99.99
2022-09-15T21:42:24.224Z,99.99
2022-09-15T21:43:24.218Z,99.99
2022-09-15T21:44:24.216Z,99.99
2022-09-15T21:45:24.210Z,99.99
2022-09-15T21:46:24.175Z,99.99
2022-09-15T21:47:24.148Z,99.99
2022-09-15T21:48:24.160Z,99.99
2022-09-15T21:49:24.136Z,99.99
2022-09-15T21:50:24.157Z,99.99
2022-09-15T21:51:25.196Z,99.99
2022-09-15T21:52:24.106Z,99.99
